sensor_id;sensor_type;location;lat;lon;timestamp;pressure;altitude;pressure_sealevel;temperature;humidity
64967;BME280;51710;38.732;-121.358;2023-03-04T00:00:53;100995.25;;;15.70;51.00
64967;BME280;51710;38.732;-121.358;2023-03-04T00:03:19;100987.88;;;15.72;51.14
64967;BME280;51710;38.732;-121.358;2023-03-04T00:05:45;100989.97;;;15.76;50.75
64967;BME280;51710;38.732;-121.358;2023-03-04T00:08:12;100988.13;;;15.77;49.53
64967;BME280;51710;38.732;-121.358;2023-03-04T00:10:38;100977.66;;;15.67;49.36
64967;BME280;51710;38.732;-121.358;2023-03-04T00:13:05;100984.97;;;15.59;49.65
64967;BME280;51710;38.732;-121.358;2023-03-04T00:15:31;100988.59;;;15.51;50.13
64967;BME280;51710;38.732;-121.358;2023-03-04T00:17:57;100983.28;;;15.43;49.84
64967;BME280;51710;38.732;-121.358;2023-03-04T00:20:23;100980.28;;;15.38;50.27
64967;BME280;51710;38.732;-121.358;2023-03-04T00:22:49;100975.28;;;15.35;50.09
64967;BME280;51710;38.732;-121.358;2023-03-04T00:25:16;100979.16;;;15.33;50.87
64967;BME280;51710;38.732;-121.358;2023-03-04T00:27:42;100978.47;;;15.31;50.96
64967;BME280;51710;38.732;-121.358;2023-03-04T00:30:09;100977.84;;;15.29;51.61
64967;BME280;51710;38.732;-121.358;2023-03-04T00:32:35;100977.84;;;15.29;51.69
64967;BME280;51710;38.732;-121.358;2023-03-04T00:35:02;100983.69;;;15.32;51.81
64967;BME280;51710;38.732;-121.358;2023-03-04T00:37:28;100970.91;;;15.34;51.14
64967;BME280;51710;38.732;-121.358;2023-03-04T00:39:54;100970.28;;;15.32;50.92
64967;BME280;51710;38.732;-121.358;2023-03-04T00:42:20;100968.31;;;15.26;50.41
64967;BME280;51710;38.732;-121.358;2023-03-04T00:44:47;100960.81;;;15.22;50.32
64967;BME280;51710;38.732;-121.358;2023-03-04T00:47:14;100957.66;;;15.18;50.03
64967;BME280;51710;38.732;-121.358;2023-03-04T00:49:40;100966.22;;;15.14;50.71
64967;BME280;51710;38.732;-121.358;2023-03-04T00:52:06;100960.09;;;15.05;50.43
64967;BME280;51710;38.732;-121.358;2023-03-04T00:54:33;100946.41;;;15.00;50.43
64967;BME280;51710;38.732;-121.358;2023-03-04T00:56:59;100953.78;;;14.98;50.53
64967;BME280;51710;38.732;-121.358;2023-03-04T00:59:26;100950.44;;;14.96;50.47
64967;BME280;51710;38.732;-121.358;2023-03-04T01:01:52;100940.47;;;14.90;50.73
64967;BME280;51710;38.732;-121.358;2023-03-04T01:04:19;100937.13;;;14.88;51.04
64967;BME280;51710;38.732;-121.358;2023-03-04T01:06:45;100953.22;;;14.88;51.26
64967;BME280;51710;38.732;-121.358;2023-03-04T01:09:11;100949.31;;;14.91;51.95
64967;BME280;51710;38.732;-121.358;2023-03-04T01:11:37;100950.91;;;14.85;52.66
64967;BME280;51710;38.732;-121.358;2023-03-04T01:14:04;100946.41;;;14.78;52.71
64967;BME280;51710;38.732;-121.358;2023-03-04T01:16:30;100948.81;;;14.73;52.78
64967;BME280;51710;38.732;-121.358;2023-03-04T01:18:57;100946.63;;;14.68;52.61
64967;BME280;51710;38.732;-121.358;2023-03-04T01:21:23;100942.84;;;14.62;52.98
64967;BME280;51710;38.732;-121.358;2023-03-04T01:23:49;100950.03;;;14.62;52.76
64967;BME280;51710;38.732;-121.358;2023-03-04T01:26:15;100946.69;;;14.60;52.68
64967;BME280;51710;38.732;-121.358;2023-03-04T01:28:42;100945.56;;;14.54;52.99
64967;BME280;51710;38.732;-121.358;2023-03-04T01:31:08;100949.16;;;14.47;53.21
64967;BME280;51710;38.732;-121.358;2023-03-04T01:33:34;100930.06;;;14.42;53.74
64967;BME280;51710;38.732;-121.358;2023-03-04T01:36:00;100926.38;;;14.43;54.06
64967;BME280;51710;38.732;-121.358;2023-03-04T01:38:27;100932.59;;;14.43;54.25
64967;BME280;51710;38.732;-121.358;2023-03-04T01:40:53;100936.25;;;14.42;54.14
64967;BME280;51710;38.732;-121.358;2023-03-04T01:43:24;100937.47;;;14.40;54.31
64967;BME280;51710;38.732;-121.358;2023-03-04T01:45:53;100945.84;;;14.37;54.16
64967;BME280;51710;38.732;-121.358;2023-03-04T01:48:25;100945.53;;;14.32;53.98
64967;BME280;51710;38.732;-121.358;2023-03-04T01:50:52;100946.88;;;14.28;54.42
64967;BME280;51710;38.732;-121.358;2023-03-04T01:53:24;100931.31;;;14.23;54.78
64967;BME280;51710;38.732;-121.358;2023-03-04T01:56:01;100931.19;;;14.17;54.49
64967;BME280;51710;38.732;-121.358;2023-03-04T01:58:31;100931.88;;;14.11;54.49
64967;BME280;51710;38.732;-121.358;2023-03-04T02:00:57;100930.91;;;14.04;54.21
64967;BME280;51710;38.732;-121.358;2023-03-04T02:03:24;100925.94;;;13.93;54.72
64967;BME280;51710;38.732;-121.358;2023-03-04T02:05:51;100940.69;;;13.89;55.00
64967;BME280;51710;38.732;-121.358;2023-03-04T02:08:21;100942.03;;;13.85;54.86
64967;BME280;51710;38.732;-121.358;2023-03-04T02:10:48;100946.88;;;13.81;54.79
64967;BME280;51710;38.732;-121.358;2023-03-04T02:13:16;100954.09;;;13.81;54.31
64967;BME280;51710;38.732;-121.358;2023-03-04T02:15:43;100953.63;;;13.77;53.72
64967;BME280;51710;38.732;-121.358;2023-03-04T02:18:16;100951.94;;;13.76;53.69
64967;BME280;51710;38.732;-121.358;2023-03-04T02:21:21;100963.00;;;13.73;53.87
64967;BME280;51710;38.732;-121.358;2023-03-04T02:26:33;100969.50;;;13.71;54.30
64967;BME280;51710;38.732;-121.358;2023-03-04T02:29:04;100971.69;;;13.67;53.95
64967;BME280;51710;38.732;-121.358;2023-03-04T02:31:44;100973.56;;;13.58;54.29
64967;BME280;51710;38.732;-121.358;2023-03-04T02:34:24;100972.25;;;13.54;54.35
64967;BME280;51710;38.732;-121.358;2023-03-04T02:36:53;100976.25;;;13.50;53.95
64967;BME280;51710;38.732;-121.358;2023-03-04T02:41:47;100973.59;;;13.34;53.78
64967;BME280;51710;38.732;-121.358;2023-03-04T02:44:25;100962.22;;;13.32;53.98
64967;BME280;51710;38.732;-121.358;2023-03-04T02:46:52;100955.03;;;13.33;53.92
64967;BME280;51710;38.732;-121.358;2023-03-04T02:49:20;100957.88;;;13.31;54.32
64967;BME280;51710;38.732;-121.358;2023-03-04T02:51:57;100934.97;;;13.29;54.57
64967;BME280;51710;38.732;-121.358;2023-03-04T02:54:24;100934.47;;;13.25;54.87
64967;BME280;51710;38.732;-121.358;2023-03-04T02:56:52;100938.50;;;13.21;54.87
64967;BME280;51710;38.732;-121.358;2023-03-04T02:59:20;100946.03;;;13.18;54.97
64967;BME280;51710;38.732;-121.358;2023-03-04T03:01:47;100951.53;;;13.16;54.98
64967;BME280;51710;38.732;-121.358;2023-03-04T03:04:13;100944.34;;;13.17;54.85
64967;BME280;51710;38.732;-121.358;2023-03-04T03:06:40;100946.84;;;13.18;54.99
64967;BME280;51710;38.732;-121.358;2023-03-04T03:09:07;100929.81;;;13.19;54.99
64967;BME280;51710;38.732;-121.358;2023-03-04T03:11:33;100932.31;;;13.21;54.94
64967;BME280;51710;38.732;-121.358;2023-03-04T03:14:00;100932.31;;;13.21;54.74
64967;BME280;51710;38.732;-121.358;2023-03-04T03:16:27;100933.00;;;13.23;54.88
64967;BME280;51710;38.732;-121.358;2023-03-04T03:18:53;100925.78;;;13.23;54.74
64967;BME280;51710;38.732;-121.358;2023-03-04T03:21:19;100926.63;;;13.24;54.76
64967;BME280;51710;38.732;-121.358;2023-03-04T03:23:46;100926.81;;;13.22;54.67
64967;BME280;51710;38.732;-121.358;2023-03-04T03:26:12;100918.78;;;13.22;54.75
64967;BME280;51710;38.732;-121.358;2023-03-04T03:28:38;100915.44;;;13.20;54.74
64967;BME280;51710;38.732;-121.358;2023-03-04T03:31:05;100930.63;;;13.20;54.77
64967;BME280;51710;38.732;-121.358;2023-03-04T03:33:31;100931.47;;;13.20;54.58
64967;BME280;51710;38.732;-121.358;2023-03-04T03:35:57;100923.81;;;13.17;54.58
64967;BME280;51710;38.732;-121.358;2023-03-04T03:38:25;100933.81;;;13.15;54.66
64967;BME280;51710;38.732;-121.358;2023-03-04T03:40:52;100922.47;;;13.13;54.81
64967;BME280;51710;38.732;-121.358;2023-03-04T03:43:19;100926.16;;;13.12;55.08
64967;BME280;51710;38.732;-121.358;2023-03-04T03:45:45;100929.63;;;13.13;55.14
64967;BME280;51710;38.732;-121.358;2023-03-04T03:48:11;100926.31;;;13.11;55.03
64967;BME280;51710;38.732;-121.358;2023-03-04T03:50:37;100927.47;;;13.08;54.83
64967;BME280;51710;38.732;-121.358;2023-03-04T03:53:04;100924.31;;;13.05;54.78
64967;BME280;51710;38.732;-121.358;2023-03-04T03:55:30;100923.47;;;13.04;54.94
64967;BME280;51710;38.732;-121.358;2023-03-04T03:57:56;100908.75;;;13.00;55.28
64967;BME280;51710;38.732;-121.358;2023-03-04T04:00:23;100914.91;;;13.01;55.28
64967;BME280;51710;38.732;-121.358;2023-03-04T04:02:49;100911.59;;;12.99;55.53
64967;BME280;51710;38.732;-121.358;2023-03-04T04:05:15;100915.25;;;12.98;55.15
64967;BME280;51710;38.732;-121.358;2023-03-04T04:07:42;100907.41;;;12.96;55.64
64967;BME280;51710;38.732;-121.358;2023-03-04T04:10:10;100914.75;;;12.94;55.81
64967;BME280;51710;38.732;-121.358;2023-03-04T04:12:36;100918.44;;;12.93;55.45
64967;BME280;51710;38.732;-121.358;2023-03-04T04:15:03;100911.41;;;12.92;55.69
64967;BME280;51710;38.732;-121.358;2023-03-04T04:17:29;100909.75;;;12.91;55.50
64967;BME280;51710;38.732;-121.358;2023-03-04T04:19:56;100915.09;;;12.91;55.67
64967;BME280;51710;38.732;-121.358;2023-03-04T04:22:22;100915.44;;;12.88;55.87
64967;BME280;51710;38.732;-121.358;2023-03-04T04:24:49;100917.44;;;12.86;56.01
64967;BME280;51710;38.732;-121.358;2023-03-04T04:27:15;100916.09;;;12.82;56.09
64967;BME280;51710;38.732;-121.358;2023-03-04T04:29:41;100917.13;;;12.81;56.20
64967;BME280;51710;38.732;-121.358;2023-03-04T04:32:08;100920.59;;;12.82;56.41
64967;BME280;51710;38.732;-121.358;2023-03-04T04:34:34;100912.75;;;12.80;57.08
64967;BME280;51710;38.732;-121.358;2023-03-04T04:37:00;100905.75;;;12.79;56.90
64967;BME280;51710;38.732;-121.358;2023-03-04T04:39:27;100913.25;;;12.76;57.04
64967;BME280;51710;38.732;-121.358;2023-03-04T04:41:53;100906.41;;;12.73;57.25
64967;BME280;51710;38.732;-121.358;2023-03-04T04:44:19;100905.09;;;12.69;57.32
64967;BME280;51710;38.732;-121.358;2023-03-04T04:46:45;100908.91;;;12.67;58.15
64967;BME280;51710;38.732;-121.358;2023-03-04T04:49:11;100910.41;;;12.61;58.43
64967;BME280;51710;38.732;-121.358;2023-03-04T04:51:38;100909.06;;;12.57;59.00
64967;BME280;51710;38.732;-121.358;2023-03-04T04:54:05;100906.72;;;12.54;58.99
64967;BME280;51710;38.732;-121.358;2023-03-04T04:56:32;100908.56;;;12.54;59.42
64967;BME280;51710;38.732;-121.358;2023-03-04T04:59:02;100907.06;;;12.51;59.89
64967;BME280;51710;38.732;-121.358;2023-03-04T05:01:29;100909.06;;;12.49;59.85
64967;BME280;51710;38.732;-121.358;2023-03-04T05:03:55;100915.88;;;12.43;60.69
64967;BME280;51710;38.732;-121.358;2023-03-04T05:06:23;100908.72;;;12.36;61.17
64967;BME280;51710;38.732;-121.358;2023-03-04T05:08:50;100905.03;;;12.29;61.38
64967;BME280;51710;38.732;-121.358;2023-03-04T05:11:16;100910.00;;;12.24;62.31
64967;BME280;51710;38.732;-121.358;2023-03-04T05:13:44;100910.50;;;12.19;62.17
64967;BME280;51710;38.732;-121.358;2023-03-04T05:16:11;100908.16;;;12.16;62.17
64967;BME280;51710;38.732;-121.358;2023-03-04T05:18:38;100903.28;;;12.12;62.33
64967;BME280;51710;38.732;-121.358;2023-03-04T05:21:04;100918.28;;;12.05;62.09
64967;BME280;51710;38.732;-121.358;2023-03-04T05:23:37;100911.78;;;11.99;62.00
64967;BME280;51710;38.732;-121.358;2023-03-04T05:26:04;100919.41;;;11.94;61.41
64967;BME280;51710;38.732;-121.358;2023-03-04T05:28:32;100920.44;;;11.93;62.06
64967;BME280;51710;38.732;-121.358;2023-03-04T05:30:59;100917.25;;;11.90;61.41
64967;BME280;51710;38.732;-121.358;2023-03-04T05:33:25;100921.22;;;11.86;61.98
64967;BME280;51710;38.732;-121.358;2023-03-04T05:35:52;100928.19;;;11.79;61.93
64967;BME280;51710;38.732;-121.358;2023-03-04T05:38:20;100924.19;;;11.75;62.37
64967;BME280;51710;38.732;-121.358;2023-03-04T05:40:48;100933.50;;;11.71;62.09
64967;BME280;51710;38.732;-121.358;2023-03-04T05:43:15;100933.81;;;11.68;62.35
64967;BME280;51710;38.732;-121.358;2023-03-04T05:45:42;100932.44;;;11.64;62.16
64967;BME280;51710;38.732;-121.358;2023-03-04T05:48:08;100934.56;;;11.60;61.95
64967;BME280;51710;38.732;-121.358;2023-03-04T05:50:35;100926.56;;;11.60;62.28
64967;BME280;51710;38.732;-121.358;2023-03-04T05:53:01;100917.72;;;11.60;62.15
64967;BME280;51710;38.732;-121.358;2023-03-04T05:55:27;100906.25;;;11.59;62.15
64967;BME280;51710;38.732;-121.358;2023-03-04T05:57:54;100914.69;;;11.55;62.16
64967;BME280;51710;38.732;-121.358;2023-03-04T06:00:21;100911.53;;;11.51;62.66
64967;BME280;51710;38.732;-121.358;2023-03-04T06:02:48;100902.84;;;11.49;62.19
64967;BME280;51710;38.732;-121.358;2023-03-04T06:05:15;100893.34;;;11.47;63.11
64967;BME280;51710;38.732;-121.358;2023-03-04T06:07:42;100893.34;;;11.47;62.54
64967;BME280;51710;38.732;-121.358;2023-03-04T06:10:11;100887.00;;;11.48;62.90
64967;BME280;51710;38.732;-121.358;2023-03-04T06:12:38;100877.34;;;11.47;62.54
64967;BME280;51710;38.732;-121.358;2023-03-04T06:15:04;100878.63;;;11.43;62.83
64967;BME280;51710;38.732;-121.358;2023-03-04T06:17:32;100868.31;;;11.40;62.48
64967;BME280;51710;38.732;-121.358;2023-03-04T06:19:58;100866.09;;;11.35;63.19
64967;BME280;51710;38.732;-121.358;2023-03-04T06:22:24;100857.44;;;11.33;63.13
64967;BME280;51710;38.732;-121.358;2023-03-04T06:24:51;100864.59;;;11.32;63.18
64967;BME280;51710;38.732;-121.358;2023-03-04T06:27:20;100867.44;;;11.31;63.07
64967;BME280;51710;38.732;-121.358;2023-03-04T06:29:46;100873.56;;;11.31;63.37
64967;BME280;51710;38.732;-121.358;2023-03-04T06:32:12;100873.56;;;11.31;63.09
64967;BME280;51710;38.732;-121.358;2023-03-04T06:34:38;100869.94;;;11.32;63.33
64967;BME280;51710;38.732;-121.358;2023-03-04T06:37:05;100867.44;;;11.31;63.36
64967;BME280;51710;38.732;-121.358;2023-03-04T06:39:31;100870.09;;;11.31;63.39
64967;BME280;51710;38.732;-121.358;2023-03-04T06:41:57;100861.09;;;11.32;63.25
64967;BME280;51710;38.732;-121.358;2023-03-04T06:44:24;100850.25;;;11.33;62.99
64967;BME280;51710;38.732;-121.358;2023-03-04T06:46:50;100869.09;;;11.32;62.90
64967;BME280;51710;38.732;-121.358;2023-03-04T06:49:16;100868.09;;;11.33;63.58
64967;BME280;51710;38.732;-121.358;2023-03-04T06:51:42;100861.09;;;11.32;63.25
64967;BME280;51710;38.732;-121.358;2023-03-04T06:54:09;100868.25;;;11.31;63.51
64967;BME280;51710;38.732;-121.358;2023-03-04T06:56:35;100868.91;;;11.33;63.76
64967;BME280;51710;38.732;-121.358;2023-03-04T06:59:02;100874.09;;;11.35;63.54
64967;BME280;51710;38.732;-121.358;2023-03-04T07:01:28;100871.59;;;11.33;63.62
64967;BME280;51710;38.732;-121.358;2023-03-04T07:03:55;100877.59;;;11.35;63.77
64967;BME280;51710;38.732;-121.358;2023-03-04T07:06:26;100883.25;;;11.32;63.31
64967;BME280;51710;38.732;-121.358;2023-03-04T07:08:53;100882.91;;;11.27;63.40
64967;BME280;51710;38.732;-121.358;2023-03-04T07:11:20;100885.84;;;11.24;63.88
64967;BME280;51710;38.732;-121.358;2023-03-04T07:13:47;100881.53;;;11.23;63.52
64967;BME280;51710;38.732;-121.358;2023-03-04T07:16:16;100876.53;;;11.20;64.01
64967;BME280;51710;38.732;-121.358;2023-03-04T07:18:43;100864.50;;;11.16;63.86
64967;BME280;51710;38.732;-121.358;2023-03-04T07:21:10;100862.31;;;11.12;64.09
64967;BME280;51710;38.732;-121.358;2023-03-04T07:23:37;100861.97;;;11.07;64.32
64967;BME280;51710;38.732;-121.358;2023-03-04T07:26:05;100866.59;;;11.05;64.54
64967;BME280;51710;38.732;-121.358;2023-03-04T07:28:32;100867.91;;;11.01;64.85
64967;BME280;51710;38.732;-121.358;2023-03-04T07:31:11;100854.06;;;10.97;64.86
64967;BME280;51710;38.732;-121.358;2023-03-04T07:33:38;100857.72;;;10.96;64.84
64967;BME280;51710;38.732;-121.358;2023-03-04T07:36:05;100856.34;;;10.92;64.95
64967;BME280;51710;38.732;-121.358;2023-03-04T07:38:31;100854.81;;;10.90;65.28
64967;BME280;51710;38.732;-121.358;2023-03-04T07:40:58;100852.31;;;10.88;65.61
64967;BME280;51710;38.732;-121.358;2023-03-04T07:43:24;100853.66;;;10.84;65.77
64967;BME280;51710;38.732;-121.358;2023-03-04T07:45:50;100850.28;;;10.82;65.83
64967;BME280;51710;38.732;-121.358;2023-03-04T07:48:17;100846.94;;;10.80;65.61
64967;BME280;51710;38.732;-121.358;2023-03-04T07:50:43;100841.94;;;10.77;66.01
64967;BME280;51710;38.732;-121.358;2023-03-04T07:53:09;100847.56;;;10.74;65.96
64967;BME280;51710;38.732;-121.358;2023-03-04T07:55:35;100840.03;;;10.70;66.11
64967;BME280;51710;38.732;-121.358;2023-03-04T07:58:02;100837.00;;;10.65;66.22
64967;BME280;51710;38.732;-121.358;2023-03-04T08:00:28;100845.28;;;10.62;66.87
64967;BME280;51710;38.732;-121.358;2023-03-04T08:02:54;100841.59;;;10.55;65.94
64967;BME280;51710;38.732;-121.358;2023-03-04T08:05:20;100840.91;;;10.53;66.08
64967;BME280;51710;38.732;-121.358;2023-03-04T08:07:47;100839.53;;;10.49;66.14
64967;BME280;51710;38.732;-121.358;2023-03-04T08:10:13;100824.16;;;10.43;65.86
64967;BME280;51710;38.732;-121.358;2023-03-04T08:12:39;100823.63;;;10.39;65.67
64967;BME280;51710;38.732;-121.358;2023-03-04T08:15:06;100824.94;;;10.35;65.98
64967;BME280;51710;38.732;-121.358;2023-03-04T08:17:32;100829.91;;;10.30;65.79
64967;BME280;51710;38.732;-121.358;2023-03-04T08:19:59;100837.19;;;10.28;65.56
64967;BME280;51710;38.732;-121.358;2023-03-04T08:22:25;100835.81;;;10.24;66.14
64967;BME280;51710;38.732;-121.358;2023-03-04T08:24:51;100834.84;;;10.25;65.66
64967;BME280;51710;38.732;-121.358;2023-03-04T08:27:17;100843.81;;;10.24;65.98
64967;BME280;51710;38.732;-121.358;2023-03-04T08:29:44;100849.13;;;10.24;66.46
64967;BME280;51710;38.732;-121.358;2023-03-04T08:32:10;100853.06;;;10.20;66.22
64967;BME280;51710;38.732;-121.358;2023-03-04T08:34:38;100848.91;;;10.17;66.42
64967;BME280;51710;38.732;-121.358;2023-03-04T08:37:04;100844.00;;;10.13;66.23
64967;BME280;51710;38.732;-121.358;2023-03-04T08:39:30;100839.00;;;10.10;66.03
64967;BME280;51710;38.732;-121.358;2023-03-04T08:41:58;100831.31;;;10.07;66.10
64967;BME280;51710;38.732;-121.358;2023-03-04T08:44:24;100825.44;;;10.03;66.11
64967;BME280;51710;38.732;-121.358;2023-03-04T08:46:50;100833.59;;;10.02;66.26
64967;BME280;51710;38.732;-121.358;2023-03-04T08:49:16;100837.69;;;9.96;66.45
64967;BME280;51710;38.732;-121.358;2023-03-04T08:51:43;100834.16;;;9.96;66.65
64967;BME280;51710;38.732;-121.358;2023-03-04T08:54:10;100839.50;;;9.96;66.50
64967;BME280;51710;38.732;-121.358;2023-03-04T08:56:36;100830.81;;;9.94;66.35
64967;BME280;51710;38.732;-121.358;2023-03-04T08:59:03;100829.75;;;9.87;66.82
64967;BME280;51710;38.732;-121.358;2023-03-04T09:01:29;100834.25;;;9.86;66.63
64967;BME280;51710;38.732;-121.358;2023-03-04T09:03:55;100832.03;;;9.82;66.81
64967;BME280;51710;38.732;-121.358;2023-03-04T09:06:21;100837.50;;;9.80;66.45
64967;BME280;51710;38.732;-121.358;2023-03-04T09:08:48;100828.66;;;9.80;66.37
64967;BME280;51710;38.732;-121.358;2023-03-04T09:11:14;100815.00;;;9.75;66.74
64967;BME280;51710;38.732;-121.358;2023-03-04T09:13:41;100834.06;;;9.70;66.83
64967;BME280;51710;38.732;-121.358;2023-03-04T09:16:12;100836.03;;;9.68;66.42
64967;BME280;51710;38.732;-121.358;2023-03-04T09:18:40;100830.31;;;9.63;67.17
64967;BME280;51710;38.732;-121.358;2023-03-04T09:21:06;100836.63;;;9.62;67.09
64967;BME280;51710;38.732;-121.358;2023-03-04T09:23:34;100842.06;;;9.61;66.80
64967;BME280;51710;38.732;-121.358;2023-03-04T09:26:01;100843.06;;;9.60;67.08
64967;BME280;51710;38.732;-121.358;2023-03-04T09:28:27;100843.63;;;9.63;66.81
64967;BME280;51710;38.732;-121.358;2023-03-04T09:30:53;100841.81;;;9.64;66.63
64967;BME280;51710;38.732;-121.358;2023-03-04T09:33:19;100837.47;;;9.63;66.78
64967;BME280;51710;38.732;-121.358;2023-03-04T09:35:46;100828.78;;;9.61;66.88
64967;BME280;51710;38.732;-121.358;2023-03-04T09:38:14;100806.72;;;9.60;67.09
64967;BME280;51710;38.732;-121.358;2023-03-04T09:40:46;100799.84;;;9.58;66.88
64967;BME280;51710;38.732;-121.358;2023-03-04T09:43:23;100813.13;;;9.58;67.46
64967;BME280;51710;38.732;-121.358;2023-03-04T09:46:00;100812.44;;;9.56;66.92
64967;BME280;51710;38.732;-121.358;2023-03-04T09:48:32;100812.59;;;9.54;67.18
64967;BME280;51710;38.732;-121.358;2023-03-04T09:51:18;100816.41;;;9.52;67.17
64967;BME280;51710;38.732;-121.358;2023-03-04T09:56:15;100811.53;;;9.47;67.41
64967;BME280;51710;38.732;-121.358;2023-03-04T10:00:09;100806.19;;;9.47;67.32
64967;BME280;51710;38.732;-121.358;2023-03-04T10:02:17;100802.84;;;9.45;67.73
64967;BME280;51710;38.732;-121.358;2023-03-04T10:04:50;100805.66;;;9.44;67.76
64967;BME280;51710;38.732;-121.358;2023-03-04T10:07:34;100805.97;;;9.41;67.74
64967;BME280;51710;38.732;-121.358;2023-03-04T10:10:32;100804.28;;;9.40;67.70
64967;BME280;51710;38.732;-121.358;2023-03-04T10:13:02;100803.63;;;9.38;68.21
64967;BME280;51710;38.732;-121.358;2023-03-04T10:15:35;100804.88;;;9.34;67.92
64967;BME280;51710;38.732;-121.358;2023-03-04T10:20:56;100815.50;;;9.34;67.96
64967;BME280;51710;38.732;-121.358;2023-03-04T10:23:27;100819.16;;;9.33;68.00
64967;BME280;51710;38.732;-121.358;2023-03-04T10:25:55;100811.03;;;9.34;67.98
64967;BME280;51710;38.732;-121.358;2023-03-04T10:28:26;100812.47;;;9.29;68.44
64967;BME280;51710;38.732;-121.358;2023-03-04T10:33:58;100787.84;;;9.27;68.28
64967;BME280;51710;38.732;-121.358;2023-03-04T10:39:00;100780.72;;;9.27;68.35
64967;BME280;51710;38.732;-121.358;2023-03-04T10:41:28;100776.53;;;9.25;68.38
64967;BME280;51710;38.732;-121.358;2023-03-04T10:46:40;100735.72;;;9.26;68.40
64967;BME280;51710;38.732;-121.358;2023-03-04T10:49:08;100742.00;;;9.25;68.55
64967;BME280;51710;38.732;-121.358;2023-03-04T10:51:48;100726.03;;;9.25;68.54
64967;BME280;51710;38.732;-121.358;2023-03-04T10:57:03;100656.22;;;9.15;68.92
64967;BME280;51710;38.732;-121.358;2023-03-04T11:02:29;100648.00;;;9.08;69.03
64967;BME280;51710;38.732;-121.358;2023-03-04T11:07:52;100666.22;;;9.03;69.51
64967;BME280;51710;38.732;-121.358;2023-03-04T11:13:18;100685.53;;;8.95;69.78
64967;BME280;51710;38.732;-121.358;2023-03-04T11:15:55;100664.59;;;8.92;69.63
64967;BME280;51710;38.732;-121.358;2023-03-04T11:18:33;100650.63;;;8.90;70.15
64967;BME280;51710;38.732;-121.358;2023-03-04T11:21:05;100634.84;;;8.89;70.36
64967;BME280;51710;38.732;-121.358;2023-03-04T11:23:58;100646.59;;;8.86;70.72
64967;BME280;51710;38.732;-121.358;2023-03-04T11:26:34;100653.56;;;8.87;70.59
64967;BME280;51710;38.732;-121.358;2023-03-04T11:29:07;100673.84;;;8.88;70.50
64967;BME280;51710;38.732;-121.358;2023-03-04T11:32:28;100708.34;;;8.88;70.56
64967;BME280;51710;38.732;-121.358;2023-03-04T11:40:00;100719.50;;;8.92;70.94
64967;BME280;51710;38.732;-121.358;2023-03-04T11:42:43;100716.41;;;8.96;70.74
64967;BME280;51710;38.732;-121.358;2023-03-04T11:45:16;100692.34;;;8.98;70.64
64967;BME280;51710;38.732;-121.358;2023-03-04T11:50:30;100719.75;;;8.98;70.25
64967;BME280;51710;38.732;-121.358;2023-03-04T11:53:35;100695.00;;;8.98;70.40
64967;BME280;51710;38.732;-121.358;2023-03-04T12:02:01;100671.72;;;8.92;69.81
64967;BME280;51710;38.732;-121.358;2023-03-04T12:07:35;100655.25;;;8.88;69.91
64967;BME280;51710;38.732;-121.358;2023-03-04T12:10:27;100659.16;;;8.84;69.72
64967;BME280;51710;38.732;-121.358;2023-03-04T12:29:59;100713.66;;;8.88;69.29
64967;BME280;51710;38.732;-121.358;2023-03-04T12:32:53;100714.50;;;8.89;69.28
64967;BME280;51710;38.732;-121.358;2023-03-04T12:38:44;100692.97;;;8.92;69.11
64967;BME280;51710;38.732;-121.358;2023-03-04T12:41:24;100681.19;;;8.94;69.10
64967;BME280;51710;38.732;-121.358;2023-03-04T12:44:19;100670.56;;;8.94;68.79
64967;BME280;51710;38.732;-121.358;2023-03-04T12:52:54;100665.16;;;8.86;68.38
64967;BME280;51710;38.732;-121.358;2023-03-04T12:55:34;100655.13;;;8.80;68.22
64967;BME280;51710;38.732;-121.358;2023-03-04T12:58:01;100650.81;;;8.79;67.58
64967;BME280;51710;38.732;-121.358;2023-03-04T13:00:39;100644.66;;;8.79;67.54
64967;BME280;51710;38.732;-121.358;2023-03-04T13:09:02;100633.06;;;8.80;67.67
64967;BME280;51710;38.732;-121.358;2023-03-04T13:16:47;100638.81;;;8.75;67.42
64967;BME280;51710;38.732;-121.358;2023-03-04T13:25:29;100628.09;;;8.67;66.43
64967;BME280;51710;38.732;-121.358;2023-03-04T13:31:03;100620.97;;;8.68;66.43
64967;BME280;51710;38.732;-121.358;2023-03-04T13:36:04;100623.78;;;8.66;66.50
64967;BME280;51710;38.732;-121.358;2023-03-04T13:38:35;100615.94;;;8.65;66.36
64967;BME280;51710;38.732;-121.358;2023-03-04T13:41:13;100623.91;;;8.65;66.87
64967;BME280;51710;38.732;-121.358;2023-03-04T13:43:44;100611.50;;;8.65;66.31
64967;BME280;51710;38.732;-121.358;2023-03-04T13:51:38;100586.09;;;8.63;66.01
64967;BME280;51710;38.732;-121.358;2023-03-04T13:54:26;100597.69;;;8.62;65.71
64967;BME280;51710;38.732;-121.358;2023-03-04T13:59:41;100650.66;;;8.54;64.80
64967;BME280;51710;38.732;-121.358;2023-03-04T14:02:17;100646.78;;;8.48;65.03
64967;BME280;51710;38.732;-121.358;2023-03-04T14:04:56;100628.50;;;8.45;65.35
64967;BME280;51710;38.732;-121.358;2023-03-04T14:07:32;100618.84;;;8.44;65.36
64967;BME280;51710;38.732;-121.358;2023-03-04T14:12:47;100605.59;;;8.44;65.41
64967;BME280;51710;38.732;-121.358;2023-03-04T14:15:24;100599.56;;;8.42;65.27
64967;BME280;51710;38.732;-121.358;2023-03-04T14:18:03;100604.06;;;8.42;65.11
64967;BME280;51710;38.732;-121.358;2023-03-04T14:20:34;100602.94;;;8.44;64.91